RYR898 EGGD-EGPH
Flight info
| Callsign | RYR898 |
|---|---|
| Flight time | 0h 58m |
| Altitude | 27000 |
| Route | BCN P69 DIZIM DCT KISWO DCT AVTIC DCT ANJAK N38 NOKIN UP16 RIBEL DCT INPIP |
| Aircraft | B738/M-SDE2E3FGHIRWXY/LB1 |
Departure
| Time | 2026-04-25 18:17 |
|---|---|
| Airport | Bristol Airport (EGGD) |
Arrival
| Time | 2026-04-25 19:15 |
|---|---|
| Airport | Edinburgh Airport (EGPH) |
| Time | Latitude | Longitude | Altitude | Speed | Heading |
|---|---|---|---|---|---|
| 2026-04-25 17:53 | 51.38549 | -2.71149 | 597 ft | 0 kts | 356° |
| 2026-04-25 18:07 | 51.38535 | -2.71148 | 598 ft | 2 kts | 356° |
| 2026-04-25 18:08 | 51.38520 | -2.71147 | 599 ft | 2 kts | 356° |
| 2026-04-25 18:08 | 51.38510 | -2.71146 | 599 ft | 2 kts | 356° |
| 2026-04-25 18:08 | 51.38495 | -2.71144 | 600 ft | 2 kts | 356° |
| 2026-04-25 18:08 | 51.38480 | -2.71143 | 600 ft | 1 kts | 356° |
| 2026-04-25 18:09 | 51.38466 | -2.71139 | 601 ft | 2 kts | 325° |
| 2026-04-25 18:09 | 51.38457 | -2.71120 | 601 ft | 2 kts | 286° |
| 2026-04-25 18:09 | 51.38456 | -2.71110 | 601 ft | 0 kts | 270° |
| 2026-04-25 18:09 | 51.38456 | -2.71103 | 601 ft | 1 kts | 262° |
| 2026-04-25 18:10 | 51.38456 | -2.71098 | 601 ft | 0 kts | 266° |
| 2026-04-25 18:11 | 51.38454 | -2.71138 | 601 ft | 9 kts | 266° |
| 2026-04-25 18:12 | 51.38451 | -2.71236 | 600 ft | 17 kts | 266° |
| 2026-04-25 18:12 | 51.38444 | -2.71481 | 599 ft | 27 kts | 266° |
| 2026-04-25 18:12 | 51.38432 | -2.71791 | 604 ft | 28 kts | 267° |
| 2026-04-25 18:12 | 51.38428 | -2.72093 | 606 ft | 27 kts | 266° |
| 2026-04-25 18:13 | 51.38415 | -2.72418 | 613 ft | 30 kts | 266° |
| 2026-04-25 18:13 | 51.38402 | -2.72779 | 612 ft | 32 kts | 266° |
| 2026-04-25 18:13 | 51.38391 | -2.73057 | 605 ft | 15 kts | 266° |
| 2026-04-25 18:14 | 51.38389 | -2.73104 | 604 ft | 0 kts | 266° |
| 2026-04-25 18:15 | 51.38388 | -2.73113 | 603 ft | 6 kts | 265° |
| 2026-04-25 18:15 | 51.38375 | -2.73265 | 598 ft | 14 kts | 245° |
| 2026-04-25 18:16 | 51.38291 | -2.73344 | 596 ft | 14 kts | 178° |
| 2026-04-25 18:16 | 51.38221 | -2.73270 | 600 ft | 10 kts | 105° |
| 2026-04-25 18:16 | 51.38238 | -2.72706 | 618 ft | 93 kts | 87° |
| 2026-04-25 18:17 | 51.38300 | -2.71119 | 676 ft | 182 kts | 86° |
| 2026-04-25 18:17 | 51.38356 | -2.69063 | 1571 ft | 183 kts | 87° |
| 2026-04-25 18:17 | 51.38378 | -2.67146 | 2113 ft | 174 kts | 88° |
| 2026-04-25 18:17 | 51.38385 | -2.64659 | 2577 ft | 164 kts | 82° |
| 2026-04-25 18:18 | 51.38556 | -2.63529 | 3189 ft | 162 kts | 63° |
| 2026-04-25 18:18 | 51.38962 | -2.61740 | 3650 ft | 179 kts | 70° |
| 2026-04-25 18:18 | 51.39272 | -2.59775 | 3585 ft | 183 kts | 77° |
| 2026-04-25 18:18 | 51.39417 | -2.57750 | 3459 ft | 185 kts | 82° |
| 2026-04-25 18:19 | 51.39628 | -2.55709 | 3607 ft | 191 kts | 60° |
| 2026-04-25 18:19 | 51.40611 | -2.54261 | 3561 ft | 206 kts | 21° |
| 2026-04-25 18:19 | 51.42013 | -2.53770 | 3452 ft | 200 kts | 357° |
| 2026-04-25 18:19 | 51.43723 | -2.54852 | 4204 ft | 215 kts | 316° |
| 2026-04-25 18:20 | 51.44706 | -2.56739 | 4915 ft | 233 kts | 300° |
| 2026-04-25 18:20 | 51.45337 | -2.59055 | 5608 ft | 230 kts | 295° |
| 2026-04-25 18:20 | 51.45824 | -2.60594 | 6034 ft | 230 kts | 300° |
| 2026-04-25 18:20 | 51.46689 | -2.62843 | 6678 ft | 251 kts | 302° |
| 2026-04-25 18:21 | 51.47671 | -2.65276 | 7312 ft | 267 kts | 302° |
| 2026-04-25 18:21 | 51.48684 | -2.67753 | 7934 ft | 270 kts | 302° |
| 2026-04-25 18:21 | 51.49726 | -2.70287 | 8566 ft | 271 kts | 302° |
| 2026-04-25 18:21 | 51.51099 | -2.73620 | 9392 ft | 273 kts | 301° |
| 2026-04-25 18:22 | 51.51808 | -2.75336 | 9814 ft | 275 kts | 301° |
| 2026-04-25 18:22 | 51.52535 | -2.76997 | 10225 ft | 278 kts | 306° |
| 2026-04-25 18:22 | 51.54683 | -2.79353 | 11061 ft | 290 kts | 330° |
| 2026-04-25 18:22 | 51.57121 | -2.81095 | 11891 ft | 290 kts | 328° |
| 2026-04-25 18:23 | 51.58347 | -2.82032 | 12312 ft | 290 kts | 327° |
| 2026-04-25 18:23 | 51.60128 | -2.83412 | 12929 ft | 289 kts | 327° |
| 2026-04-25 18:23 | 51.61938 | -2.84825 | 13557 ft | 288 kts | 326° |
| 2026-04-25 18:23 | 51.64323 | -2.86701 | 14391 ft | 286 kts | 325° |
| 2026-04-25 18:24 | 51.66105 | -2.88106 | 15004 ft | 284 kts | 324° |
| 2026-04-25 18:24 | 51.67277 | -2.89039 | 15210 ft | 290 kts | 324° |
| 2026-04-25 18:24 | 51.69133 | -2.90524 | 15488 ft | 300 kts | 324° |
| 2026-04-25 18:24 | 51.71023 | -2.92031 | 15767 ft | 309 kts | 324° |
| 2026-04-25 18:25 | 51.72985 | -2.93595 | 16046 ft | 317 kts | 324° |
| 2026-04-25 18:25 | 51.75620 | -2.95694 | 16410 ft | 321 kts | 324° |
| 2026-04-25 18:25 | 51.76972 | -2.96770 | 16595 ft | 322 kts | 324° |
| 2026-04-25 18:25 | 51.79634 | -2.98894 | 16959 ft | 324 kts | 324° |
| 2026-04-25 18:26 | 51.81005 | -2.99990 | 17145 ft | 325 kts | 324° |
| 2026-04-25 18:26 | 51.83012 | -3.01597 | 17417 ft | 327 kts | 323° |
| 2026-04-25 18:26 | 51.85052 | -3.03233 | 17693 ft | 329 kts | 323° |
| 2026-04-25 18:26 | 51.87792 | -3.05432 | 18060 ft | 331 kts | 323° |
| 2026-04-25 18:27 | 51.89181 | -3.06549 | 18246 ft | 332 kts | 323° |
| 2026-04-25 18:27 | 51.91180 | -3.08157 | 18511 ft | 334 kts | 323° |
| 2026-04-25 18:27 | 51.93330 | -3.09889 | 18796 ft | 336 kts | 322° |
| 2026-04-25 18:27 | 51.96120 | -3.12141 | 19139 ft | 339 kts | 322° |
| 2026-04-25 18:28 | 51.97533 | -3.13284 | 19186 ft | 341 kts | 322° |
| 2026-04-25 18:28 | 51.99648 | -3.14991 | 19180 ft | 340 kts | 322° |
| 2026-04-25 18:28 | 52.01770 | -3.16676 | 19180 ft | 341 kts | 325° |
| 2026-04-25 18:29 | 52.07355 | -3.18420 | 19190 ft | 371 kts | 352° |
| 2026-04-25 18:29 | 52.09102 | -3.18287 | 19191 ft | 373 kts | 353° |
| 2026-04-25 18:30 | 52.17713 | -3.17637 | 19182 ft | 373 kts | 353° |
| 2026-04-25 18:30 | 52.19441 | -3.17505 | 19181 ft | 373 kts | 353° |
| 2026-04-25 18:30 | 52.22013 | -3.17307 | 19399 ft | 368 kts | 353° |
| 2026-04-25 18:30 | 52.24548 | -3.17110 | 20055 ft | 359 kts | 352° |
| 2026-04-25 18:31 | 52.27769 | -3.16863 | 20904 ft | 347 kts | 351° |
| 2026-04-25 18:31 | 52.29372 | -3.16741 | 21340 ft | 341 kts | 351° |
| 2026-04-25 18:31 | 52.31683 | -3.16567 | 21984 ft | 331 kts | 350° |
| 2026-04-25 18:31 | 52.33939 | -3.16397 | 22632 ft | 321 kts | 349° |
| 2026-04-25 18:32 | 52.36858 | -3.16177 | 23503 ft | 306 kts | 348° |
| 2026-04-25 18:32 | 52.38925 | -3.16020 | 24148 ft | 293 kts | 346° |
| 2026-04-25 18:32 | 52.40247 | -3.15918 | 24576 ft | 283 kts | 346° |
| 2026-04-25 18:32 | 52.42149 | -3.15770 | 25213 ft | 268 kts | 344° |
| 2026-04-25 18:33 | 52.44637 | -3.15628 | 25423 ft | 276 kts | 343° |
| 2026-04-25 18:33 | 52.46571 | -3.15525 | 25487 ft | 287 kts | 345° |
| 2026-04-25 18:33 | 52.48631 | -3.15392 | 25547 ft | 298 kts | 346° |
| 2026-04-25 18:33 | 52.50717 | -3.15249 | 25648 ft | 307 kts | 346° |
| 2026-04-25 18:34 | 52.52148 | -3.15148 | 25716 ft | 313 kts | 346° |
| 2026-04-25 18:34 | 52.54342 | -3.14990 | 25852 ft | 320 kts | 347° |
| 2026-04-25 18:34 | 52.56593 | -3.14811 | 26101 ft | 323 kts | 347° |
| 2026-04-25 18:34 | 52.58812 | -3.14637 | 26347 ft | 325 kts | 347° |
| 2026-04-25 18:35 | 52.61099 | -3.14456 | 26599 ft | 327 kts | 347° |
| 2026-04-25 18:35 | 52.63367 | -3.14278 | 26848 ft | 329 kts | 347° |
| 2026-04-25 18:35 | 52.65640 | -3.14101 | 27094 ft | 330 kts | 347° |
| 2026-04-25 18:35 | 52.68715 | -3.13875 | 27190 ft | 341 kts | 347° |
| 2026-04-25 18:36 | 52.71154 | -3.13536 | 27180 ft | 365 kts | 359° |
| 2026-04-25 18:36 | 52.72799 | -3.12722 | 27180 ft | 386 kts | 11° |
| 2026-04-25 18:36 | 52.75258 | -3.10923 | 27193 ft | 399 kts | 14° |
| 2026-04-25 18:36 | 52.77802 | -3.09012 | 27183 ft | 407 kts | 14° |
| 2026-04-25 18:37 | 52.80383 | -3.07076 | 27181 ft | 416 kts | 14° |
| 2026-04-25 18:37 | 52.83046 | -3.05044 | 27181 ft | 423 kts | 15° |
| 2026-04-25 18:37 | 52.85691 | -3.03002 | 27181 ft | 431 kts | 15° |
| 2026-04-25 18:37 | 52.89201 | -3.00144 | 27182 ft | 438 kts | 15° |
| 2026-04-25 18:38 | 52.92016 | -2.98208 | 27182 ft | 437 kts | 9° |
| 2026-04-25 18:38 | 52.93885 | -2.97104 | 27182 ft | 439 kts | 9° |
| 2026-04-25 18:38 | 52.96724 | -2.95438 | 27182 ft | 444 kts | 9° |
| 2026-04-25 18:38 | 52.99657 | -2.93673 | 27181 ft | 449 kts | 10° |
| 2026-04-25 18:39 | 53.02571 | -2.91906 | 27181 ft | 453 kts | 10° |
| 2026-04-25 18:39 | 53.05532 | -2.90105 | 27181 ft | 457 kts | 11° |
| 2026-04-25 18:39 | 53.08534 | -2.88272 | 27181 ft | 460 kts | 11° |
| 2026-04-25 18:39 | 53.12546 | -2.85801 | 27182 ft | 464 kts | 11° |
| 2026-04-25 18:40 | 53.14537 | -2.84570 | 27185 ft | 466 kts | 12° |
| 2026-04-25 18:40 | 53.17585 | -2.82681 | 27191 ft | 468 kts | 12° |
| 2026-04-25 18:40 | 53.20617 | -2.80797 | 27197 ft | 470 kts | 12° |
| 2026-04-25 18:40 | 53.23695 | -2.78881 | 27201 ft | 472 kts | 12° |
| 2026-04-25 18:41 | 53.26779 | -2.76960 | 27205 ft | 474 kts | 12° |
| 2026-04-25 18:41 | 53.29903 | -2.75011 | 27208 ft | 476 kts | 12° |
| 2026-04-25 18:41 | 53.32965 | -2.73096 | 27209 ft | 478 kts | 12° |
| 2026-04-25 18:41 | 53.36115 | -2.71122 | 27209 ft | 479 kts | 12° |
| 2026-04-25 18:42 | 53.39232 | -2.69165 | 27209 ft | 480 kts | 12° |
| 2026-04-25 18:42 | 53.41285 | -2.67876 | 27209 ft | 481 kts | 12° |
| 2026-04-25 18:42 | 53.45467 | -2.65243 | 27209 ft | 483 kts | 12° |
| 2026-04-25 18:42 | 53.48621 | -2.63255 | 27209 ft | 484 kts | 12° |
| 2026-04-25 18:43 | 53.51780 | -2.61263 | 27209 ft | 485 kts | 12° |
| 2026-04-25 18:43 | 53.54911 | -2.59284 | 27209 ft | 486 kts | 12° |
| 2026-04-25 18:43 | 53.58064 | -2.57288 | 27209 ft | 486 kts | 12° |
| 2026-04-25 18:43 | 53.62301 | -2.54604 | 27209 ft | 487 kts | 12° |
| 2026-04-25 18:44 | 53.64378 | -2.53285 | 27209 ft | 488 kts | 12° |
| 2026-04-25 18:44 | 53.67552 | -2.51266 | 27209 ft | 488 kts | 12° |
| 2026-04-25 18:44 | 53.70750 | -2.49229 | 27209 ft | 489 kts | 12° |
| 2026-04-25 18:44 | 53.73911 | -2.47212 | 27209 ft | 490 kts | 12° |
| 2026-04-25 18:45 | 53.77093 | -2.45179 | 27209 ft | 490 kts | 12° |
| 2026-04-25 18:45 | 53.80275 | -2.43141 | 27208 ft | 490 kts | 12° |
| 2026-04-25 18:45 | 53.83486 | -2.41085 | 27209 ft | 491 kts | 12° |
| 2026-04-25 18:45 | 53.86663 | -2.39046 | 27208 ft | 491 kts | 12° |
| 2026-04-25 18:46 | 53.89849 | -2.36998 | 27210 ft | 492 kts | 12° |
| 2026-04-25 18:46 | 53.93026 | -2.34953 | 27212 ft | 492 kts | 13° |
| 2026-04-25 18:46 | 53.96233 | -2.32928 | 27213 ft | 489 kts | 10° |
| 2026-04-25 18:46 | 53.99469 | -2.31499 | 27212 ft | 477 kts | 360° |
| 2026-04-25 18:47 | 54.02714 | -2.31251 | 27215 ft | 454 kts | 343° |
| 2026-04-25 18:47 | 54.05719 | -2.32312 | 27230 ft | 437 kts | 332° |
| 2026-04-25 18:47 | 54.08562 | -2.33980 | 27221 ft | 429 kts | 327° |
| 2026-04-25 18:47 | 54.11320 | -2.35855 | 27214 ft | 428 kts | 326° |
| 2026-04-25 18:48 | 54.14077 | -2.37726 | 27211 ft | 428 kts | 327° |
| 2026-04-25 18:48 | 54.17753 | -2.40219 | 27210 ft | 428 kts | 327° |
| 2026-04-25 18:48 | 54.19618 | -2.41496 | 27209 ft | 427 kts | 326° |
| 2026-04-25 18:48 | 54.22349 | -2.43375 | 27209 ft | 427 kts | 326° |
| 2026-04-25 18:49 | 54.25098 | -2.45274 | 27209 ft | 427 kts | 326° |
| 2026-04-25 18:49 | 54.27842 | -2.47176 | 27213 ft | 426 kts | 326° |
| 2026-04-25 18:49 | 54.30584 | -2.49083 | 27219 ft | 426 kts | 326° |
| 2026-04-25 18:49 | 54.33315 | -2.50988 | 27223 ft | 425 kts | 326° |
| 2026-04-25 18:50 | 54.36039 | -2.52893 | 27209 ft | 426 kts | 326° |
| 2026-04-25 18:50 | 54.39726 | -2.55484 | 27056 ft | 429 kts | 326° |
| 2026-04-25 18:50 | 54.41545 | -2.56764 | 26982 ft | 431 kts | 326° |
| 2026-04-25 18:50 | 54.44342 | -2.58735 | 26869 ft | 433 kts | 326° |
| 2026-04-25 18:51 | 54.47112 | -2.60689 | 26757 ft | 435 kts | 327° |
| 2026-04-25 18:51 | 54.49000 | -2.62023 | 26681 ft | 436 kts | 327° |
| 2026-04-25 18:51 | 54.52747 | -2.64672 | 26531 ft | 438 kts | 327° |
| 2026-04-25 18:51 | 54.55537 | -2.66648 | 26420 ft | 439 kts | 326° |
| 2026-04-25 18:52 | 54.58369 | -2.68653 | 26306 ft | 439 kts | 326° |
| 2026-04-25 18:52 | 54.61177 | -2.70645 | 26228 ft | 438 kts | 326° |
| 2026-04-25 18:52 | 54.63994 | -2.72646 | 26227 ft | 437 kts | 326° |
| 2026-04-25 18:52 | 54.66816 | -2.74653 | 26235 ft | 436 kts | 326° |
| 2026-04-25 18:53 | 54.69607 | -2.76643 | 26239 ft | 435 kts | 326° |
| 2026-04-25 18:53 | 54.72402 | -2.78639 | 26241 ft | 434 kts | 326° |
| 2026-04-25 18:53 | 54.75177 | -2.80625 | 26238 ft | 434 kts | 326° |
| 2026-04-25 18:53 | 54.77953 | -2.82615 | 26232 ft | 434 kts | 326° |
| 2026-04-25 18:54 | 54.83513 | -2.86609 | 26219 ft | 433 kts | 326° |
| 2026-04-25 18:54 | 54.86297 | -2.88614 | 26212 ft | 433 kts | 326° |
| 2026-04-25 18:54 | 54.89062 | -2.90609 | 26212 ft | 432 kts | 326° |
| 2026-04-25 18:55 | 54.91830 | -2.92608 | 26222 ft | 431 kts | 326° |
| 2026-04-25 18:55 | 54.94590 | -2.94605 | 26126 ft | 433 kts | 327° |
| 2026-04-25 18:55 | 54.97374 | -2.96629 | 25667 ft | 439 kts | 327° |
| 2026-04-25 18:55 | 55.00188 | -2.98668 | 25010 ft | 433 kts | 328° |
| 2026-04-25 18:56 | 55.02908 | -3.00624 | 24363 ft | 421 kts | 329° |
| 2026-04-25 18:56 | 55.05564 | -3.02541 | 23713 ft | 410 kts | 329° |
| 2026-04-25 18:56 | 55.08172 | -3.04432 | 23058 ft | 400 kts | 329° |
| 2026-04-25 18:56 | 55.10703 | -3.06274 | 22406 ft | 391 kts | 329° |
| 2026-04-25 18:57 | 55.13169 | -3.08075 | 21754 ft | 384 kts | 329° |
| 2026-04-25 18:57 | 55.15605 | -3.09859 | 21076 ft | 377 kts | 329° |
| 2026-04-25 18:57 | 55.18019 | -3.11632 | 20394 ft | 371 kts | 330° |
| 2026-04-25 18:57 | 55.19593 | -3.12789 | 19943 ft | 368 kts | 330° |
| 2026-04-25 18:58 | 55.22671 | -3.15053 | 19038 ft | 355 kts | 330° |
| 2026-04-25 18:58 | 55.27043 | -3.18271 | 17686 ft | 330 kts | 331° |
| 2026-04-25 18:58 | 55.29186 | -3.19588 | 17008 ft | 325 kts | 339° |
| 2026-04-25 18:59 | 55.33666 | -3.19892 | 15656 ft | 323 kts | 0° |
| 2026-04-25 18:59 | 55.38791 | -3.19062 | 14067 ft | 310 kts | 0° |
| 2026-04-25 19:00 | 55.42346 | -3.18503 | 12929 ft | 302 kts | 1° |
| 2026-04-25 19:00 | 55.44442 | -3.18174 | 12257 ft | 303 kts | 1° |
| 2026-04-25 19:01 | 55.48727 | -3.17499 | 10893 ft | 310 kts | 1° |
| 2026-04-25 19:01 | 55.50916 | -3.17150 | 10202 ft | 311 kts | 1° |
| 2026-04-25 19:01 | 55.53099 | -3.16801 | 9513 ft | 311 kts | 2° |
| 2026-04-25 19:01 | 55.55252 | -3.16457 | 8831 ft | 309 kts | 2° |
| 2026-04-25 19:02 | 55.59327 | -3.15801 | 7475 ft | 284 kts | 2° |
| 2026-04-25 19:02 | 55.61259 | -3.15494 | 6793 ft | 272 kts | 3° |
| 2026-04-25 19:02 | 55.63110 | -3.15203 | 6200 ft | 260 kts | 3° |
| 2026-04-25 19:03 | 55.65939 | -3.16073 | 5221 ft | 244 kts | 327° |
| 2026-04-25 19:03 | 55.67337 | -3.19152 | 4456 ft | 241 kts | 298° |
| 2026-04-25 19:03 | 55.68006 | -3.21758 | 4314 ft | 227 kts | 298° |
| 2026-04-25 19:04 | 55.69344 | -3.26921 | 4299 ft | 215 kts | 298° |
| 2026-04-25 19:04 | 55.69958 | -3.29319 | 4297 ft | 213 kts | 298° |
| 2026-04-25 19:05 | 55.71188 | -3.34135 | 4295 ft | 211 kts | 298° |
| 2026-04-25 19:05 | 55.72288 | -3.38525 | 4273 ft | 174 kts | 298° |
| 2026-04-25 19:05 | 55.72764 | -3.40474 | 4275 ft | 171 kts | 298° |
| 2026-04-25 19:06 | 55.73246 | -3.42450 | 4312 ft | 170 kts | 298° |
| 2026-04-25 19:06 | 55.74439 | -3.46103 | 4306 ft | 168 kts | 314° |
| 2026-04-25 19:06 | 55.75193 | -3.47742 | 4304 ft | 168 kts | 313° |
| 2026-04-25 19:07 | 55.76673 | -3.50977 | 4296 ft | 164 kts | 313° |
| 2026-04-25 19:07 | 55.77388 | -3.52546 | 4292 ft | 162 kts | 313° |
| 2026-04-25 19:08 | 55.78823 | -3.55698 | 4292 ft | 163 kts | 313° |
| 2026-04-25 19:08 | 55.79539 | -3.57274 | 4292 ft | 163 kts | 313° |
| 2026-04-25 19:09 | 55.81576 | -3.61757 | 4304 ft | 162 kts | 313° |
| 2026-04-25 19:09 | 55.82060 | -3.62823 | 4303 ft | 162 kts | 313° |
| 2026-04-25 19:09 | 55.84260 | -3.64339 | 4293 ft | 158 kts | 22° |
| 2026-04-25 19:10 | 55.85265 | -3.63476 | 4302 ft | 158 kts | 21° |
| 2026-04-25 19:10 | 55.86190 | -3.62388 | 4291 ft | 162 kts | 46° |
| 2026-04-25 19:10 | 55.86865 | -3.60738 | 4310 ft | 159 kts | 49° |
| 2026-04-25 19:10 | 55.87485 | -3.59186 | 4287 ft | 149 kts | 53° |
| 2026-04-25 19:11 | 55.88045 | -3.57606 | 4289 ft | 149 kts | 53° |
| 2026-04-25 19:11 | 55.88606 | -3.55967 | 3935 ft | 162 kts | 55° |
| 2026-04-25 19:11 | 55.89171 | -3.54242 | 3388 ft | 157 kts | 56° |
| 2026-04-25 19:11 | 55.89744 | -3.52575 | 2713 ft | 161 kts | 56° |
| 2026-04-25 19:12 | 55.90304 | -3.50966 | 2295 ft | 142 kts | 56° |
| 2026-04-25 19:12 | 55.90809 | -3.49525 | 1978 ft | 132 kts | 55° |
| 2026-04-25 19:12 | 55.91307 | -3.48125 | 1640 ft | 137 kts | 56° |
| 2026-04-25 19:12 | 55.91817 | -3.46698 | 1221 ft | 129 kts | 57° |
| 2026-04-25 19:13 | 55.92268 | -3.45406 | 994 ft | 118 kts | 58° |
| 2026-04-25 19:13 | 55.92695 | -3.44145 | 1008 ft | 119 kts | 58° |
| 2026-04-25 19:13 | 55.93106 | -3.42870 | 813 ft | 115 kts | 59° |
| 2026-04-25 19:13 | 55.93529 | -3.41598 | 568 ft | 117 kts | 58° |
| 2026-04-25 19:14 | 55.93948 | -3.40353 | 382 ft | 112 kts | 59° |
| 2026-04-25 19:14 | 55.94208 | -3.39584 | 263 ft | 109 kts | 59° |
| 2026-04-25 19:14 | 55.94667 | -3.38230 | 108 ft | 60 kts | 59° |
| 2026-04-25 19:14 | 55.94839 | -3.37711 | 102 ft | 50 kts | 59° |
| 2026-04-25 19:15 | 55.95033 | -3.37153 | 102 ft | 51 kts | 59° |
| 2026-04-25 19:15 | 55.95184 | -3.36700 | 101 ft | 34 kts | 59° |
| 2026-04-25 19:15 | 55.95247 | -3.36505 | 105 ft | 0 kts | 72° |
| 2026-04-25 19:15 | 55.95254 | -3.36443 | 105 ft | 1 kts | 91° |
| 2026-04-25 19:16 | 55.95226 | -3.36386 | 105 ft | 16 kts | 147° |
| 2026-04-25 19:16 | 55.95155 | -3.36320 | 105 ft | 8 kts | 167° |
| 2026-04-25 19:16 | 55.95137 | -3.36321 | 105 ft | 0 kts | 188° |
| 2026-04-25 19:17 | 55.95134 | -3.36323 | 105 ft | 0 kts | 197° |
| 2026-04-25 19:17 | 55.95130 | -3.36326 | 105 ft | 0 kts | 206° |
| 2026-04-25 19:18 | 55.95126 | -3.36330 | 105 ft | 0 kts | 213° |
| 2026-04-25 19:18 | 55.95110 | -3.36356 | 105 ft | 11 kts | 228° |
| 2026-04-25 19:18 | 55.95094 | -3.36383 | 105 ft | 0 kts | 223° |
| 2026-04-25 19:18 | 55.95066 | -3.36470 | 105 ft | 15 kts | 244° |
| 2026-04-25 19:19 | 55.95004 | -3.36665 | 105 ft | 17 kts | 239° |
| 2026-04-25 19:19 | 55.94945 | -3.36809 | 102 ft | 11 kts | 207° |
| 2026-04-25 19:19 | 55.94890 | -3.36805 | 104 ft | 5 kts | 166° |
| 2026-04-25 19:19 | 55.94861 | -3.36795 | 104 ft | 9 kts | 174° |
| 2026-04-25 19:20 | 55.94775 | -3.36776 | 106 ft | 7 kts | 153° |
| 2026-04-25 19:20 | 55.94751 | -3.36718 | 106 ft | 5 kts | 103° |
| 2026-04-25 19:20 | 55.94748 | -3.36661 | 106 ft | 2 kts | 90° |
| 2026-04-25 19:20 | 55.94748 | -3.36648 | 107 ft | 1 kts | 92° |
| 2026-04-25 19:21 | 55.94748 | -3.36646 | 107 ft | 0 kts | 92° |